Time;durP1;ratioP1;P1;durP2;ratioP2;P2;SDS_P1;SDS_P2;PMS_P1;PMS_P2;Temp;Humidity;BMP_temperature;BMP_pressure;BME280_temperature;BME280_humidity;BME280_pressure;Samples;Min_cycle;Max_cycle;Signal;HPM_P1;HPM_P2
2022/06/17 00:00:55;;;;;;;0.50;0.00;;;14.50;99.90;;;;;;5092827;28;20454;-81
2022/06/17 00:03:26;;;;;;;0.00;0.00;;;14.50;99.90;;;;;;5096733;28;20431;-80
2022/06/17 00:05:56;;;;;;;0.00;0.00;;;14.50;99.90;;;;;;5095102;28;20470;-78
2022/06/17 00:08:29;;;;;;;0.00;0.00;;;14.40;99.90;;;;;;5086719;28;20445;-78
2022/06/17 00:10:58;;;;;;;0.00;0.00;;;14.30;99.90;;;;;;5085393;28;20450;-78
2022/06/17 00:13:27;;;;;;;0.00;0.00;;;14.20;99.90;;;;;;5084852;28;20687;-77
2022/06/17 00:15:55;;;;;;;0.00;0.00;;;14.20;99.90;;;;;;5089386;28;20904;-78
2022/06/17 00:18:24;;;;;;;0.00;0.00;;;14.10;99.90;;;;;;5083300;28;20532;-78
2022/06/17 00:20:52;;;;;;;0.00;0.00;;;14.10;99.90;;;;;;5085491;28;20528;-77
2022/06/17 00:23:24;;;;;;;0.00;0.00;;;14.10;99.90;;;;;;5086194;28;20620;-78
2022/06/17 00:25:54;;;;;;;0.00;0.00;;;14.00;99.90;;;;;;5087702;28;20498;-83
2022/06/17 00:28:24;;;;;;;0.00;0.00;;;14.10;99.90;;;;;;5091015;28;20976;-80
2022/06/17 00:30:52;;;;;;;0.00;0.00;;;14.10;99.90;;;;;;5092498;28;20913;-80
2022/06/17 00:33:20;;;;;;;0.00;0.00;;;14.10;99.90;;;;;;5091769;28;20485;-80
2022/06/17 00:35:52;;;;;;;0.00;0.00;;;14.00;99.90;;;;;;5090868;28;20541;-79
2022/06/17 00:38:22;;;;;;;0.00;0.00;;;13.90;99.90;;;;;;5089452;28;20721;-78
2022/06/17 00:40:52;;;;;;;0.00;0.00;;;14.00;99.90;;;;;;5097977;28;20579;-79
2022/06/17 00:43:28;;;;;;;0.00;0.00;;;14.00;99.90;;;;;;5080273;28;20437;-73
2022/06/17 00:46:05;;;;;;;0.00;0.00;;;13.90;99.90;;;;;;5081627;28;20837;-74
2022/06/17 00:48:40;;;;;;;0.00;0.00;;;13.90;99.90;;;;;;4899743;27;5001624;-76
2022/06/17 00:51:15;;;;;;;0.00;0.00;;;13.90;99.90;;;;;;5096781;28;20643;-73
2022/06/17 00:53:50;;;;;;;0.00;0.00;;;13.80;99.90;;;;;;5103197;28;20609;-81
2022/06/17 00:56:23;;;;;;;0.00;0.00;;;13.80;99.90;;;;;;5106885;28;20468;-79
2022/06/17 00:59:02;;;;;;;0.00;0.00;;;13.80;99.90;;;;;;5108218;28;21167;-80
2022/06/17 01:01:38;;;;;;;0.00;0.00;;;13.80;99.90;;;;;;5109723;28;20465;-79
2022/06/17 01:04:09;;;;;;;0.00;0.00;;;13.90;99.90;;;;;;5108844;28;20476;-79
2022/06/17 01:06:42;;;;;;;0.00;0.00;;;13.90;99.90;;;;;;5112515;28;20509;-77
2022/06/17 01:12:06;;;;;;;0.00;0.00;;;13.70;99.90;;;;;;5107149;28;20452;-77
2022/06/17 01:14:36;;;;;;;0.00;0.00;;;13.70;99.90;;;;;;5108863;28;20464;-78
2022/06/17 01:17:04;;;;;;;0.00;0.00;;;13.70;99.90;;;;;;5109373;28;20545;-79
2022/06/17 01:19:37;;;;;;;0.00;0.00;;;13.70;99.90;;;;;;5109467;28;20478;-78
2022/06/17 01:22:17;;;;;;;0.00;0.00;;;13.70;99.90;;;;;;5109925;28;20468;-82
2022/06/17 01:24:49;;;;;;;0.00;0.00;;;13.60;99.90;;;;;;5111030;28;20445;-79
2022/06/17 01:27:19;;;;;;;0.00;0.00;;;13.60;99.90;;;;;;5116422;28;20734;-79
2022/06/17 01:29:47;;;;;;;0.00;0.00;;;13.60;99.90;;;;;;5113406;28;20523;-80
2022/06/17 01:32:17;;;;;;;0.00;0.00;;;13.50;99.90;;;;;;5111342;28;20751;-79
2022/06/17 01:34:46;;;;;;;0.00;0.00;;;13.50;99.90;;;;;;5109016;28;20476;-79
2022/06/17 01:37:14;;;;;;;0.00;0.00;;;13.50;99.90;;;;;;5109126;28;20819;-80
2022/06/17 01:39:42;;;;;;;0.00;0.00;;;13.50;99.90;;;;;;5110178;28;20670;-79
2022/06/17 01:42:12;;;;;;;0.00;0.00;;;13.60;99.90;;;;;;5110632;28;20472;-79
2022/06/17 01:44:42;;;;;;;0.00;0.00;;;13.60;99.90;;;;;;5109866;28;20818;-79
2022/06/17 01:47:15;;;;;;;0.00;0.00;;;13.50;99.90;;;;;;5119962;28;20448;-78
2022/06/17 01:49:47;;;;;;;0.00;0.00;;;13.50;99.90;;;;;;5125566;28;20711;-79
2022/06/17 01:52:21;;;;;;;0.00;0.00;;;13.40;99.90;;;;;;5110640;28;20756;-79
2022/06/17 01:54:53;;;;;;;0.00;0.00;;;13.40;99.90;;;;;;5107508;28;20843;-78
2022/06/17 01:57:26;;;;;;;0.00;0.00;;;13.50;99.90;;;;;;5102927;28;20538;-79
2022/06/17 01:59:59;;;;;;;0.00;0.00;;;13.50;99.90;;;;;;5107384;28;20469;-78
2022/06/17 02:02:30;;;;;;;0.00;0.00;;;13.40;99.90;;;;;;5110549;28;20477;-77
2022/06/17 02:05:02;;;;;;;0.00;0.00;;;13.40;99.90;;;;;;5110020;28;20452;-77
2022/06/17 02:07:35;;;;;;;0.00;0.00;;;13.40;99.90;;;;;;5109501;28;20485;-78
2022/06/17 02:10:03;;;;;;;0.00;0.00;;;13.40;99.90;;;;;;5103924;28;20524;-75
2022/06/17 02:12:33;;;;;;;0.00;0.00;;;13.30;99.90;;;;;;5103494;28;20433;-77
2022/06/17 02:15:01;;;;;;;0.00;0.00;;;13.40;99.90;;;;;;5101437;28;20577;-77
2022/06/17 02:17:34;;;;;;;0.00;0.00;;;13.40;99.90;;;;;;5103967;28;20727;-77
2022/06/17 02:22:37;;;;;;;0.00;0.00;;;13.30;99.90;;;;;;5481286;22;20837;-92
2022/06/17 02:25:11;;;;;;;0.00;0.00;;;13.30;99.90;;;;;;5101118;28;20446;-91
2022/06/17 02:27:43;;;;;;;0.00;0.00;;;13.30;99.90;;;;;;5102065;28;20447;-91
2022/06/17 02:30:14;;;;;;;0.00;0.00;;;13.30;99.90;;;;;;5094805;28;20454;-90
2022/06/17 02:32:43;;;;;;;0.00;0.00;;;13.30;99.90;;;;;;5092927;28;20474;-90
2022/06/17 02:35:22;;;;;;;0.00;0.00;;;13.30;99.90;;;;;;5099236;28;20474;-91
2022/06/17 02:37:51;;;;;;;0.00;0.00;;;13.20;99.90;;;;;;5097559;28;20473;-90
2022/06/17 02:40:26;;;;;;;0.00;0.00;;;13.20;99.90;;;;;;5096408;28;20477;-91
2022/06/17 02:42:59;;;;;;;0.00;0.00;;;13.30;99.90;;;;;;5096801;28;20525;-89
2022/06/17 02:45:32;;;;;;;0.00;0.00;;;13.30;99.90;;;;;;5099108;28;20539;-91
2022/06/17 02:48:14;;;;;;;0.00;0.00;;;13.20;99.90;;;;;;5103114;28;20534;-90
2022/06/17 02:50:44;;;;;;;0.00;0.00;;;13.10;99.90;;;;;;5108771;28;20488;-90
2022/06/17 02:53:15;;;;;;;0.00;0.00;;;13.20;99.90;;;;;;5107784;28;20477;-90
2022/06/17 02:55:45;;;;;;;0.00;0.00;;;13.20;99.90;;;;;;5108237;28;20477;-90
2022/06/17 02:58:23;;;;;;;0.00;0.00;;;13.20;99.90;;;;;;5104205;28;20451;-90
2022/06/17 03:00:52;;;;;;;0.00;0.00;;;13.20;99.90;;;;;;5096604;28;20439;-90
2022/06/17 03:03:22;;;;;;;0.00;0.00;;;13.10;99.90;;;;;;5098316;28;20561;-91
2022/06/17 03:05:52;;;;;;;0.00;0.00;;;13.10;99.90;;;;;;5099296;28;20433;-89
2022/06/17 03:08:26;;;;;;;0.00;0.00;;;13.10;99.90;;;;;;5103455;28;20576;-92
2022/06/17 03:10:58;;;;;;;0.00;0.00;;;13.10;99.90;;;;;;5090808;28;20510;-91
2022/06/17 03:13:41;;;;;;;0.00;0.00;;;13.10;99.90;;;;;;5088205;28;20780;-90
2022/06/17 03:16:23;;;;;;;0.00;0.00;;;13.10;99.90;;;;;;5088248;28;20494;-92
2022/06/17 03:18:53;;;;;;;0.00;0.00;;;13.10;99.90;;;;;;5090862;28;20469;-93
2022/06/17 03:21:24;;;;;;;0.00;0.00;;;13.00;99.90;;;;;;5093487;28;20802;-92
2022/06/17 03:24:02;;;;;;;0.00;0.00;;;12.90;99.90;;;;;;5096033;28;20489;-91
2022/06/17 03:26:36;;;;;;;0.00;0.00;;;12.90;99.90;;;;;;5097470;28;20741;-92
2022/06/17 03:29:20;;;;;;;0.00;0.00;;;13.00;99.90;;;;;;5095050;28;20445;-92
2022/06/17 03:31:57;;;;;;;0.00;0.00;;;12.90;99.90;;;;;;5094729;28;20477;-91
2022/06/17 03:34:31;;;;;;;0.00;0.00;;;13.00;99.90;;;;;;5098886;28;20732;-91
2022/06/17 03:37:09;;;;;;;0.00;0.00;;;13.00;99.90;;;;;;5102523;28;20439;-91
2022/06/17 03:39:40;;;;;;;0.00;0.00;;;13.00;99.90;;;;;;5097177;28;20457;-92
2022/06/17 03:42:14;;;;;;;0.00;0.00;;;13.00;99.90;;;;;;5101204;28;20499;-93
2022/06/17 03:44:50;;;;;;;0.00;0.00;;;13.00;99.90;;;;;;5104798;28;20809;-93
2022/06/17 03:47:30;;;;;;;0.00;0.00;;;13.10;99.90;;;;;;5101497;28;20457;-92
2022/06/17 03:50:05;;;;;;;0.00;0.00;;;13.20;99.90;;;;;;5100683;28;20526;-92
2022/06/17 03:52:42;;;;;;;0.00;0.00;;;13.30;99.90;;;;;;5100269;28;20438;-92
2022/06/17 03:55:14;;;;;;;0.00;0.00;;;13.30;99.90;;;;;;5096452;28;21055;-91
2022/06/17 03:57:45;;;;;;;0.00;0.00;;;13.20;99.90;;;;;;5098991;28;20450;-91
2022/06/17 04:00:20;;;;;;;0.00;0.00;;;13.30;99.90;;;;;;5104078;28;20419;-93
2022/06/17 04:02:51;;;;;;;0.00;0.00;;;13.50;99.90;;;;;;5106431;28;20457;-93
2022/06/17 04:05:21;;;;;;;0.00;0.00;;;13.60;99.90;;;;;;5107381;28;20491;-93
2022/06/17 04:07:50;;;;;;;0.00;0.00;;;13.60;99.90;;;;;;5109732;28;20427;-93
2022/06/17 04:10:23;;;;;;;0.00;0.00;;;13.70;99.90;;;;;;5109216;28;20438;-93
2022/06/17 04:12:53;;;;;;;0.00;0.00;;;13.70;99.90;;;;;;5103702;28;20447;-92
2022/06/17 04:15:33;;;;;;;0.00;0.00;;;13.70;99.90;;;;;;5097620;28;20462;-89
2022/06/17 04:18:02;;;;;;;0.00;0.00;;;13.80;99.90;;;;;;5090790;28;20613;-90
2022/06/17 04:20:38;;;;;;;0.00;0.00;;;13.80;99.90;;;;;;5091765;28;20692;-90
2022/06/17 04:23:12;;;;;;;0.00;0.00;;;13.80;99.90;;;;;;5088912;28;21003;-89
2022/06/17 04:25:45;;;;;;;0.00;0.00;;;14.00;99.90;;;;;;5092085;28;20519;-92
2022/06/17 04:28:19;;;;;;;0.00;0.00;;;14.00;99.90;;;;;;5103123;28;20441;-93
2022/06/17 04:30:54;;;;;;;0.00;0.00;;;14.00;99.90;;;;;;5102877;28;20439;-92
2022/06/17 04:33:26;;;;;;;0.00;0.00;;;14.00;99.90;;;;;;5105659;28;20480;-93
2022/06/17 04:36:01;;;;;;;0.00;0.00;;;14.10;99.90;;;;;;5101198;28;20473;-92
2022/06/17 04:38:33;;;;;;;0.00;0.00;;;14.10;99.90;;;;;;5096917;28;20932;-91
2022/06/17 04:41:07;;;;;;;0.00;0.00;;;14.10;99.90;;;;;;5101503;28;20443;-92
2022/06/17 04:43:39;;;;;;;0.00;0.00;;;14.20;99.90;;;;;;5103431;28;20474;-89
2022/06/17 04:46:17;;;;;;;0.00;0.00;;;14.30;99.90;;;;;;5098116;28;20444;-89
2022/06/17 04:48:57;;;;;;;0.00;0.00;;;14.30;99.90;;;;;;5097186;28;20530;-89
2022/06/17 04:51:26;;;;;;;0.00;0.00;;;14.30;99.90;;;;;;5094878;28;20495;-90
2022/06/17 04:54:03;;;;;;;0.00;0.00;;;14.40;99.90;;;;;;5094156;28;20533;-89
2022/06/17 04:56:34;;;;;;;0.00;0.00;;;14.50;99.90;;;;;;5093294;28;20470;-88
2022/06/17 04:59:17;;;;;;;0.00;0.00;;;14.60;99.90;;;;;;5094459;28;20451;-91
2022/06/17 05:01:49;;;;;;;0.00;0.00;;;14.70;99.90;;;;;;5094240;28;20929;-90
2022/06/17 05:04:18;;;;;;;0.00;0.00;;;14.80;99.90;;;;;;5093344;28;20497;-88
2022/06/17 05:06:47;;;;;;;0.00;0.00;;;14.80;99.90;;;;;;5100987;28;20455;-89
2022/06/17 05:09:25;;;;;;;0.00;0.00;;;14.80;99.90;;;;;;5107488;28;20781;-91
2022/06/17 05:11:58;;;;;;;0.00;0.00;;;14.90;99.90;;;;;;5095984;28;20948;-92
2022/06/17 05:14:37;;;;;;;0.00;0.00;;;15.00;99.90;;;;;;5095986;28;20980;-90
2022/06/17 05:17:06;;;;;;;0.00;0.00;;;15.00;99.90;;;;;;5097224;28;20497;-88
2022/06/17 05:19:35;;;;;;;0.00;0.00;;;15.10;99.90;;;;;;5095263;28;20617;-91
2022/06/17 05:22:13;;;;;;;0.00;0.00;;;15.10;99.90;;;;;;5095421;28;20897;-89
2022/06/17 05:24:45;;;;;;;0.00;0.00;;;15.20;99.90;;;;;;5096264;28;20486;-89
2022/06/17 05:27:13;;;;;;;0.00;0.00;;;15.40;99.90;;;;;;5093620;28;20500;-88
2022/06/17 05:29:44;;;;;;;0.00;0.00;;;15.60;99.90;;;;;;5094496;28;20435;-90
2022/06/17 05:32:20;;;;;;;0.00;0.00;;;16.10;99.90;;;;;;5097182;28;20454;-90
2022/06/17 05:34:51;;;;;;;0.00;0.00;;;16.50;99.90;;;;;;5094408;28;20486;-89
2022/06/17 05:37:19;;;;;;;0.00;0.00;;;16.80;99.90;;;;;;5093343;28;20478;-90
2022/06/17 05:39:51;;;;;;;0.00;0.00;;;16.80;99.90;;;;;;5097116;28;20453;-93
2022/06/17 05:42:19;;;;;;;0.00;0.00;;;16.80;99.90;;;;;;5097605;28;20552;-90
2022/06/17 05:44:49;;;;;;;0.00;0.00;;;16.70;99.90;;;;;;5094048;28;20490;-91
2022/06/17 05:47:19;;;;;;;0.00;0.00;;;16.60;99.90;;;;;;5100662;28;20518;-93
2022/06/17 05:49:47;;;;;;;0.00;0.00;;;16.70;99.90;;;;;;5103497;28;20549;-93
2022/06/17 05:52:16;;;;;;;0.00;0.00;;;16.60;99.90;;;;;;5102640;28;20452;-91
2022/06/17 05:54:48;;;;;;;0.00;0.00;;;16.60;99.90;;;;;;5108125;28;20513;-94
2022/06/17 05:57:18;;;;;;;0.00;0.00;;;16.70;99.90;;;;;;5109272;28;20494;-91
2022/06/17 05:59:47;;;;;;;0.00;0.00;;;16.70;99.90;;;;;;5103945;28;20457;-92
2022/06/17 06:02:18;;;;;;;0.00;0.00;;;16.70;99.90;;;;;;5102099;28;20504;-91
2022/06/17 06:04:49;;;;;;;0.00;0.00;;;16.80;99.90;;;;;;5103030;28;20721;-92
2022/06/17 06:07:17;;;;;;;0.00;0.00;;;16.80;99.90;;;;;;5111459;28;20492;-93
2022/06/17 06:09:47;;;;;;;0.00;0.00;;;16.90;99.90;;;;;;5105907;28;20449;-91
2022/06/17 06:12:18;;;;;;;0.00;0.00;;;16.90;99.90;;;;;;5100910;28;20529;-91
2022/06/17 06:14:47;;;;;;;0.00;0.00;;;17.00;99.90;;;;;;5103759;28;20527;-92
2022/06/17 06:17:15;;;;;;;0.00;0.00;;;17.10;99.90;;;;;;5100752;28;20566;-90
2022/06/17 06:19:43;;;;;;;0.00;0.00;;;17.20;99.90;;;;;;5099537;28;20451;-91
2022/06/17 06:22:18;;;;;;;0.00;0.00;;;17.10;99.90;;;;;;5101253;28;20478;-92
2022/06/17 06:24:46;;;;;;;0.00;0.00;;;17.20;99.90;;;;;;5101808;28;20758;-91
2022/06/17 06:27:14;;;;;;;0.00;0.00;;;17.20;99.90;;;;;;5097663;28;21006;-91
2022/06/17 06:29:42;;;;;;;0.00;0.00;;;17.30;99.90;;;;;;5104574;28;20447;-93
2022/06/17 06:32:11;;;;;;;0.00;0.00;;;17.40;99.90;;;;;;5105104;28;20497;-92
2022/06/17 06:34:40;;;;;;;0.00;0.00;;;17.50;99.90;;;;;;5099661;28;20472;-92
2022/06/17 06:37:08;;;;;;;0.00;0.00;;;17.60;99.90;;;;;;5097782;28;20559;-91
2022/06/17 06:39:39;;;;;;;0.00;0.00;;;17.60;99.90;;;;;;5108315;28;20462;-92
2022/06/17 06:42:08;;;;;;;0.00;0.00;;;17.70;99.90;;;;;;5103690;28;20443;-90
2022/06/17 06:44:36;;;;;;;0.00;0.00;;;17.80;99.90;;;;;;5100560;28;20470;-92
2022/06/17 06:47:05;;;;;;;0.00;0.00;;;17.80;99.90;;;;;;5101416;28;20455;-90
2022/06/17 06:49:34;;;;;;;0.00;0.00;;;17.90;99.90;;;;;;5099994;28;20449;-91
2022/06/17 06:52:02;;;;;;;0.00;0.00;;;18.00;99.90;;;;;;5097678;28;20454;-91
2022/06/17 06:54:30;;;;;;;0.00;0.00;;;18.00;99.90;;;;;;5101906;28;20509;-91
2022/06/17 06:57:00;;;;;;;0.00;0.00;;;18.10;99.90;;;;;;5096785;28;20503;-91
2022/06/17 06:59:50;;;;;;;0.00;0.00;;;18.20;99.90;;;;;;5100011;28;20479;-91
2022/06/17 07:02:21;;;;;;;0.00;0.00;;;18.20;99.90;;;;;;5098048;28;21039;-91
2022/06/17 07:04:49;;;;;;;0.00;0.00;;;18.30;99.90;;;;;;5104370;28;20532;-90
2022/06/17 07:07:17;;;;;;;0.00;0.00;;;18.30;99.90;;;;;;5101762;28;20456;-90
2022/06/17 07:09:47;;;;;;;0.00;0.00;;;18.40;99.90;;;;;;5110168;28;20461;-89
2022/06/17 07:12:21;;;;;;;0.00;0.00;;;18.50;99.90;;;;;;5099052;28;20506;-90
2022/06/17 07:14:51;;;;;;;0.00;0.00;;;18.60;99.90;;;;;;5099333;28;21074;-92
2022/06/17 07:17:20;;;;;;;0.00;0.00;;;18.70;99.90;;;;;;5099563;28;20752;-90
2022/06/17 07:19:48;;;;;;;0.00;0.00;;;18.80;99.90;;;;;;5108527;28;20489;-91
2022/06/17 07:22:21;;;;;;;0.00;0.00;;;18.90;99.90;;;;;;5098489;28;20460;-90
2022/06/17 07:24:49;;;;;;;0.00;0.00;;;19.00;99.90;;;;;;5097554;28;20492;-92
2022/06/17 07:27:30;;;;;;;0.00;0.00;;;19.10;99.90;;;;;;5095452;28;20442;-90
2022/06/17 07:30:19;;;;;;;0.00;0.00;;;19.10;99.90;;;;;;5095441;28;20473;-90
2022/06/17 07:32:49;;;;;;;0.00;0.00;;;19.00;99.90;;;;;;5095685;28;21104;-90
2022/06/17 07:35:22;;;;;;;0.00;0.00;;;19.10;99.90;;;;;;5097827;28;20545;-91
2022/06/17 07:40:47;;;;;;;0.00;0.00;;;19.20;99.90;;;;;;5096661;28;21073;-89
2022/06/17 07:43:16;;;;;;;0.00;0.00;;;19.40;99.90;;;;;;5083935;28;20509;-91
2022/06/17 07:45:46;;;;;;;0.00;0.00;;;19.50;99.90;;;;;;5076287;28;20469;-89
2022/06/17 07:48:18;;;;;;;0.00;0.00;;;19.70;99.90;;;;;;5074590;28;20437;-92
2022/06/17 07:50:52;;;;;;;0.00;0.00;;;19.80;99.90;;;;;;5077428;28;20450;-88
2022/06/17 07:53:20;;;;;;;0.00;0.00;;;19.90;99.90;;;;;;5073258;28;21013;-89
2022/06/17 07:55:48;;;;;;;0.00;0.00;;;19.90;99.90;;;;;;5075623;28;20465;-89
2022/06/17 07:58:17;;;;;;;0.00;0.00;;;19.90;99.90;;;;;;5079429;28;20471;-90
2022/06/17 08:00:48;;;;;;;0.00;0.00;;;19.90;99.90;;;;;;5086690;28;20506;-95
2022/06/17 08:03:20;;;;;;;0.00;0.00;;;19.90;99.90;;;;;;5087706;28;20658;-91
2022/06/17 08:05:54;;;;;;;0.00;0.00;;;20.00;99.90;;;;;;5087574;28;20443;-93
2022/06/17 08:08:25;;;;;;;0.00;0.00;;;20.10;99.90;;;;;;5090623;28;20439;-93
2022/06/17 08:10:56;;;;;;;0.00;0.00;;;20.20;99.90;;;;;;5093000;28;20435;-91
2022/06/17 08:13:26;;;;;;;0.00;0.00;;;20.20;99.90;;;;;;5091508;28;20482;-92
2022/06/17 08:15:59;;;;;;;0.00;0.00;;;20.30;99.90;;;;;;5090068;28;20439;-91
2022/06/17 08:18:29;;;;;;;0.00;0.00;;;20.40;99.90;;;;;;5086684;28;20468;-90
2022/06/17 08:21:04;;;;;;;0.00;0.00;;;20.50;99.90;;;;;;5082901;28;20447;-91
2022/06/17 08:23:36;;;;;;;0.00;0.00;;;20.40;99.90;;;;;;5077698;28;20482;-89
2022/06/17 08:26:05;;;;;;;0.00;0.00;;;20.50;99.90;;;;;;5079124;28;20489;-91
2022/06/17 08:28:34;;;;;;;0.00;0.00;;;20.70;99.90;;;;;;5081842;28;20465;-91
2022/06/17 08:31:04;;;;;;;0.00;0.00;;;20.90;99.90;;;;;;5075330;28;20283;-93
2022/06/17 08:37:38;;;;;;;0.00;0.00;;;21.10;99.90;;;;;;5077132;28;20592;-93
2022/06/17 08:48:48;;;;;;;0.00;0.00;;;22.30;99.90;;;;;;5065265;28;20486;-69
2022/06/17 08:51:29;;;;;;;0.00;0.00;;;22.80;99.90;;;;;;5070142;28;20544;-69
2022/06/17 08:54:11;;;;;;;0.00;0.00;;;23.10;99.90;;;;;;5068446;28;20823;-68
2022/06/17 08:56:46;;;;;;;0.00;0.00;;;23.30;99.90;;;;;;5068185;28;20456;-69
2022/06/17 08:59:33;;;;;;;0.00;0.00;;;23.50;99.90;;;;;;5062533;28;21089;-70
2022/06/17 09:02:18;;;;;;;0.00;0.00;;;23.60;99.90;;;;;;5068425;28;20437;-68
2022/06/17 09:05:11;;;;;;;0.00;0.00;;;23.70;99.90;;;;;;5066835;28;20469;-70
2022/06/17 09:07:53;;;;;;;0.00;0.00;;;23.90;99.90;;;;;;5067142;28;20486;-65
2022/06/17 09:10:35;;;;;;;0.00;0.00;;;24.10;99.90;;;;;;5064149;28;20441;-66
2022/06/17 09:13:19;;;;;;;0.00;0.00;;;24.20;99.90;;;;;;5059149;28;20446;-66
2022/06/17 09:15:54;;;;;;;0.00;0.00;;;24.30;99.90;;;;;;5067061;28;20550;-66
2022/06/17 09:18:29;;;;;;;0.00;0.00;;;24.40;99.90;;;;;;5067136;28;20474;-67
2022/06/17 09:21:06;;;;;;;0.00;0.00;;;24.30;99.90;;;;;;5064713;28;20938;-63
2022/06/17 09:23:38;;;;;;;0.00;0.00;;;24.30;99.90;;;;;;5061957;28;20926;-65
2022/06/17 09:26:12;;;;;;;0.00;0.00;;;24.20;99.90;;;;;;5058591;28;20451;-65
2022/06/17 09:28:47;;;;;;;0.00;0.00;;;24.20;99.90;;;;;;5067379;28;20924;-66
2022/06/17 09:31:21;;;;;;;0.00;0.00;;;24.20;99.90;;;;;;5065470;28;20426;-65
2022/06/17 09:33:55;;;;;;;0.00;0.00;;;24.20;99.90;;;;;;5062783;28;20439;-66
2022/06/17 09:36:31;;;;;;;0.00;0.00;;;24.20;99.90;;;;;;5070678;28;20455;-66
2022/06/17 09:39:05;;;;;;;0.00;0.00;;;24.20;99.90;;;;;;5069548;28;20487;-66
2022/06/17 09:41:37;;;;;;;0.00;0.00;;;24.30;99.90;;;;;;5071492;28;20427;-65
2022/06/17 09:44:09;;;;;;;0.00;0.00;;;24.30;99.90;;;;;;5068311;28;20466;-64
2022/06/17 09:46:42;;;;;;;0.00;0.00;;;24.50;99.90;;;;;;5068692;28;20658;-64
2022/06/17 09:49:17;;;;;;;0.00;0.00;;;24.50;99.90;;;;;;5061898;28;20545;-66
2022/06/17 09:51:52;;;;;;;0.00;0.00;;;24.70;99.90;;;;;;5068025;28;20920;-65
2022/06/17 09:54:28;;;;;;;0.00;0.00;;;24.80;99.90;;;;;;5070523;28;20443;-66
2022/06/17 09:57:02;;;;;;;0.00;0.00;;;25.00;99.90;;;;;;5070231;28;20457;-65
2022/06/17 09:59:38;;;;;;;0.00;0.00;;;25.10;99.90;;;;;;5063401;28;21091;-65
2022/06/17 10:02:20;;;;;;;0.00;0.00;;;25.10;99.90;;;;;;5067250;28;20454;-66
2022/06/17 10:04:48;;;;;;;0.00;0.00;;;25.30;99.90;;;;;;5064902;28;20849;-65
2022/06/17 10:07:26;;;;;;;0.00;0.00;;;25.40;99.90;;;;;;5069635;28;20516;-66
2022/06/17 10:10:05;;;;;;;0.00;0.00;;;25.40;99.90;;;;;;5068454;28;20442;-65
2022/06/17 10:12:47;;;;;;;0.00;0.00;;;25.40;99.90;;;;;;5068718;28;20457;-65
2022/06/17 10:15:29;;;;;;;0.00;0.00;;;25.50;99.90;;;;;;5078098;28;20900;-65
2022/06/17 10:21:08;;;;;;;0.00;0.00;;;25.50;99.90;;;;;;5067864;28;20953;-66
2022/06/17 10:23:47;;;;;;;0.00;0.00;;;25.40;99.90;;;;;;5067912;28;20939;-68
2022/06/17 10:26:28;;;;;;;0.00;0.00;;;25.40;99.90;;;;;;5067172;28;20465;-68
2022/06/17 10:29:18;;;;;;;0.00;0.00;;;25.30;99.90;;;;;;5067540;28;20960;-66
2022/06/17 10:31:48;;;;;;;0.00;0.00;;;25.50;99.90;;;;;;5069902;28;21036;-67
2022/06/17 10:34:21;;;;;;;0.00;0.00;;;25.50;99.90;;;;;;5069514;28;20516;-69
2022/06/17 10:36:52;;;;;;;0.00;0.00;;;25.50;99.90;;;;;;5048071;28;20788;-64
2022/06/17 10:39:24;;;;;;;0.00;0.00;;;25.50;99.90;;;;;;5039057;28;20477;-65
2022/06/17 10:41:53;;;;;;;0.00;0.00;;;25.50;99.90;;;;;;5051642;28;20446;-65
2022/06/17 10:44:26;;;;;;;0.00;0.00;;;25.40;99.90;;;;;;5059407;28;20979;-65
2022/06/17 10:46:59;;;;;;;0.00;0.00;;;25.50;99.90;;;;;;5058781;28;20481;-65
2022/06/17 10:49:30;;;;;;;0.00;0.00;;;25.60;99.90;;;;;;5058522;28;20427;-75
2022/06/17 10:51:59;;;;;;;0.00;0.00;;;25.70;99.90;;;;;;5058305;28;20446;-73
2022/06/17 10:54:31;;;;;;;0.00;0.00;;;25.80;99.90;;;;;;5060982;28;20622;-65
2022/06/17 10:57:02;;;;;;;0.00;0.00;;;25.90;99.90;;;;;;5059417;28;20513;-65
2022/06/17 10:59:33;;;;;;;0.00;0.00;;;26.00;99.90;;;;;;5059046;28;21175;-64
2022/06/17 11:02:01;;;;;;;0.00;0.00;;;26.00;99.80;;;;;;5059162;28;20538;-64
2022/06/17 11:04:32;;;;;;;0.00;0.00;;;26.10;99.50;;;;;;5059673;28;20470;-65
2022/06/17 11:07:04;;;;;;;0.00;0.00;;;26.10;99.60;;;;;;5059360;28;20541;-65
2022/06/17 11:09:38;;;;;;;0.00;0.00;;;26.30;99.20;;;;;;5059799;28;20527;-64
2022/06/17 11:12:16;;;;;;;0.00;0.00;;;26.30;99.10;;;;;;5059709;28;20973;-64
2022/06/17 11:14:52;;;;;;;0.00;0.00;;;26.40;99.00;;;;;;5059155;28;20437;-66
2022/06/17 11:17:23;;;;;;;0.00;0.00;;;26.50;99.50;;;;;;5059280;28;20467;-64
2022/06/17 11:19:55;;;;;;;0.00;0.00;;;26.60;99.40;;;;;;5058845;28;20584;-65
2022/06/17 11:22:30;;;;;;;0.00;0.00;;;26.60;99.50;;;;;;5058517;28;20725;-65
2022/06/17 11:25:02;;;;;;;0.00;0.00;;;26.70;98.70;;;;;;5058571;28;20439;-65
2022/06/17 11:27:34;;;;;;;0.00;0.00;;;26.60;98.90;;;;;;5058992;28;20942;-65
2022/06/17 11:30:20;;;;;;;0.00;0.00;;;26.60;98.70;;;;;;5058404;28;20432;-65
2022/06/17 11:32:50;;;;;;;0.00;0.00;;;26.70;98.30;;;;;;5048599;28;20648;-64
2022/06/17 11:35:22;;;;;;;0.00;0.00;;;26.80;98.20;;;;;;5048649;28;20462;-65
2022/06/17 11:37:51;;;;;;;0.00;0.00;;;26.80;98.50;;;;;;5037726;28;20446;-64
2022/06/17 11:40:23;;;;;;;0.00;0.00;;;26.80;98.40;;;;;;5038810;28;20477;-65
2022/06/17 11:42:54;;;;;;;0.00;0.00;;;26.90;98.50;;;;;;5037539;28;20471;-65
2022/06/17 11:45:25;;;;;;;0.00;0.00;;;26.90;98.50;;;;;;5037753;28;20615;-66
2022/06/17 11:48:00;;;;;;;0.00;0.00;;;26.90;97.60;;;;;;5038004;28;20979;-65
2022/06/17 11:50:31;;;;;;;0.00;0.00;;;26.80;98.00;;;;;;5038585;28;20524;-64
2022/06/17 11:53:06;;;;;;;0.00;0.00;;;26.80;97.40;;;;;;5037133;28;20440;-64
2022/06/17 11:55:42;;;;;;;0.00;0.00;;;26.70;97.60;;;;;;5036903;28;20464;-65
2022/06/17 11:58:33;;;;;;;0.00;0.00;;;26.70;98.20;;;;;;5038067;28;20462;-65
2022/06/17 12:01:14;;;;;;;0.00;0.00;;;26.70;97.50;;;;;;5037523;28;20560;-64
2022/06/17 12:03:44;;;;;;;0.00;0.00;;;26.60;97.90;;;;;;5038399;28;20942;-64
2022/06/17 12:06:24;;;;;;;0.00;0.00;;;26.60;98.40;;;;;;5038091;28;20469;-65
2022/06/17 12:08:57;;;;;;;0.00;0.00;;;26.50;97.80;;;;;;5038629;28;20444;-64
2022/06/17 12:11:36;;;;;;;0.00;0.00;;;26.50;97.60;;;;;;5042620;28;20460;-65
2022/06/17 12:14:11;;;;;;;0.00;0.00;;;26.40;97.50;;;;;;5056828;28;20450;-64
2022/06/17 12:16:41;;;;;;;0.00;0.00;;;26.30;97.40;;;;;;5052332;28;20534;-65
2022/06/17 12:19:28;;;;;;;0.00;0.00;;;26.20;98.00;;;;;;5057302;28;20566;-65
2022/06/17 12:21:58;;;;;;;0.00;0.00;;;26.20;98.50;;;;;;5048142;28;20788;-65
2022/06/17 12:24:34;;;;;;;0.00;0.00;;;26.10;97.70;;;;;;5037541;28;20443;-64
2022/06/17 12:27:15;;;;;;;0.00;0.00;;;26.10;98.00;;;;;;5051852;28;20480;-65
2022/06/17 12:29:53;;;;;;;0.00;0.00;;;26.00;97.80;;;;;;5047494;28;20715;-65
2022/06/17 12:32:25;;;;;;;0.00;0.00;;;26.00;98.00;;;;;;5037303;28;20763;-64
2022/06/17 12:35:02;;;;;;;0.00;0.00;;;26.00;98.60;;;;;;5037998;28;20939;-65
2022/06/17 12:37:39;;;;;;;0.00;0.00;;;25.90;98.10;;;;;;5038096;28;20511;-64
2022/06/17 12:40:13;;;;;;;0.00;0.00;;;26.00;98.50;;;;;;5037391;28;20475;-63
2022/06/17 12:42:50;;;;;;;0.00;0.00;;;26.10;99.10;;;;;;5037010;28;20808;-63
2022/06/17 12:45:26;;;;;;;0.00;0.00;;;26.20;98.10;;;;;;5037280;28;20436;-63
2022/06/17 12:48:12;;;;;;;0.00;0.00;;;26.30;98.40;;;;;;5036161;28;20476;-63
2022/06/17 12:53:46;;;;;;;0.00;0.00;;;26.60;99.00;;;;;;5045860;28;20472;-64
2022/06/17 12:56:27;;;;;;;0.00;0.00;;;26.80;98.00;;;;;;5056667;28;20476;-64
2022/06/17 12:59:23;;;;;;;0.00;0.00;;;26.90;98.10;;;;;;5056684;28;20957;-64
2022/06/17 13:01:58;;;;;;;0.00;0.00;;;26.90;98.30;;;;;;5056426;28;20446;-63
2022/06/17 13:04:45;;;;;;;0.00;0.00;;;26.90;98.70;;;;;;5060649;28;20452;-63
2022/06/17 13:07:20;;;;;;;0.00;0.00;;;26.90;97.30;;;;;;5060712;28;20452;-63
2022/06/17 13:09:57;;;;;;;0.00;0.00;;;26.80;97.40;;;;;;5057145;28;20506;-63
2022/06/17 13:12:31;;;;;;;0.00;0.00;;;26.80;97.10;;;;;;5043303;28;20444;-64
2022/06/17 13:15:06;;;;;;;0.00;0.00;;;26.70;97.70;;;;;;5054393;28;20453;-63
2022/06/17 13:17:41;;;;;;;0.00;0.00;;;26.70;97.50;;;;;;5043369;28;20468;-65
2022/06/17 13:20:15;;;;;;;0.00;0.00;;;26.60;97.40;;;;;;5056143;28;20487;-64
2022/06/17 13:22:51;;;;;;;0.00;0.00;;;26.70;97.30;;;;;;5041882;28;20452;-65
2022/06/17 13:25:29;;;;;;;0.00;0.00;;;26.70;97.30;;;;;;5046781;28;20448;-62
2022/06/17 13:28:02;;;;;;;0.00;0.00;;;26.60;98.00;;;;;;5067736;28;20432;-63
2022/06/17 13:30:36;;;;;;;0.00;0.00;;;26.80;97.40;;;;;;5042311;28;20545;-67
2022/06/17 13:33:12;;;;;;;0.00;0.00;;;26.80;97.30;;;;;;5042888;28;20445;-63
2022/06/17 13:35:44;;;;;;;0.00;0.00;;;26.80;97.70;;;;;;5040458;28;21189;-63
2022/06/17 13:38:19;;;;;;;0.00;0.00;;;26.90;98.10;;;;;;5040544;28;20450;-64
2022/06/17 13:40:50;;;;;;;0.00;0.00;;;27.00;98.10;;;;;;5040663;28;20472;-64
2022/06/17 13:43:22;;;;;;;0.00;0.00;;;27.10;98.00;;;;;;5041585;28;20443;-63
2022/06/17 13:46:00;;;;;;;0.00;0.00;;;27.20;97.90;;;;;;5041584;28;20984;-64